Kansas City, Missouri
Traffic Map
Current Weather Conditions
Kansas City, Missouri
Clear
Clear
18°
Feels Like: 18°
Wind Chill: 18° Ceiling: Unl
Heat Index: 18° Visibility: 10mi
Dew Point: 12° Wind: 9mph
Humidity: 65% Direction: 270° (W)
Pressure: 29.68in Gusts: 0mph
Raw Report DataKMKC 191654Z 27008KT 10SM CLR 18/12 A2968 RMK AO2 SLP048 T01830117
Traffic Incident Summary
Active as of:
Severity:
Category:
InformationThere was an issue retrieving the traffic information for this location. Please try a different location or try again shortly.
Advertisements
Track Severe Weather on mobile